createdAt,value
2019-05-07T00:01:46.311Z,100656.69
2019-05-07T00:04:13.343Z,100652.58
2019-05-07T00:06:40.603Z,100651.97
2019-05-07T00:09:12.251Z,100653.23
2019-05-07T00:11:39.747Z,100652.71
2019-05-07T00:14:06.807Z,100653.78
2019-05-07T00:16:34.005Z,100646.45
2019-05-07T00:19:03.251Z,100650.02
2019-05-07T00:21:32.556Z,100645.94
2019-05-07T00:23:59.283Z,100644.31
2019-05-07T00:26:27.443Z,100643.41
2019-05-07T00:28:54.518Z,100636.92
2019-05-07T00:31:23.416Z,100637.05
2019-05-07T00:33:52.604Z,100637.93
2019-05-07T00:36:27.684Z,100634.17
2019-05-07T00:39:02.775Z,100639.42
2019-05-07T00:41:38.370Z,100637.05
2019-05-07T00:44:07.570Z,100635.11
2019-05-07T00:46:34.877Z,100627.49
2019-05-07T00:49:02.450Z,100626.84
2019-05-07T00:51:33.138Z,100627.75
2019-05-07T00:54:02.822Z,100627.69
2019-05-07T00:56:30.117Z,100618.03
2019-05-07T00:58:57.422Z,100618.45
2019-05-07T01:01:25.061Z,100616.77
2019-05-07T01:03:53.433Z,100617.16
2019-05-07T01:06:22.783Z,100612.31
2019-05-07T01:08:49.690Z,100605.92
2019-05-07T01:11:17.906Z,100607.83
2019-05-07T01:13:45.077Z,100602.34
2019-05-07T01:16:12.975Z,100605.40
2019-05-07T01:18:42.107Z,100608.53
2019-05-07T01:21:09.112Z,100600.06
2019-05-07T01:23:36.178Z,100603.34
2019-05-07T01:26:03.538Z,100597.53
2019-05-07T01:28:34.289Z,100595.55
2019-05-07T01:31:02.178Z,100592.42
2019-05-07T01:33:38.311Z,100591.42
2019-05-07T01:36:10.021Z,100589.58
2019-05-07T01:38:37.041Z,100591.55
2019-05-07T01:41:04.320Z,100591.62
2019-05-07T01:43:32.112Z,100594.67
2019-05-07T01:45:59.228Z,100592.11
2019-05-07T01:48:26.304Z,100577.35
2019-05-07T01:50:53.360Z,100589.51
2019-05-07T01:53:22.598Z,100583.19
2019-05-07T01:55:49.354Z,100583.64
2019-05-07T01:58:16.392Z,100582.93
2019-05-07T02:00:43.456Z,100586.59
2019-05-07T02:03:20.414Z,100581.45
2019-05-07T02:05:53.638Z,100582.23
2019-05-07T02:08:44.353Z,100587.88
2019-05-07T02:11:13.654Z,100587.20
2019-05-07T02:13:42.001Z,100587.76
2019-05-07T02:16:09.312Z,100593.19
2019-05-07T02:18:37.651Z,100586.92
2019-05-07T02:21:04.700Z,100587.76
2019-05-07T02:23:33.017Z,100581.95
2019-05-07T02:26:02.010Z,100584.33
2019-05-07T02:28:29.349Z,100582.28
2019-05-07T02:30:56.514Z,100586.63
2019-05-07T02:33:23.655Z,100580.72
2019-05-07T02:35:53.444Z,100585.63
2019-05-07T02:38:33.659Z,100579.64
2019-05-07T02:41:06.371Z,100583.41
2019-05-07T02:43:33.976Z,100581.56
2019-05-07T02:46:22.332Z,100586.98
2019-05-07T02:48:53.589Z,100582.02
2019-05-07T02:51:34.703Z,100588.19
2019-05-07T02:54:24.561Z,100588.69
2019-05-07T02:56:53.307Z,100587.04
2019-05-07T02:59:23.396Z,100592.61
2019-05-07T03:01:49.581Z,100593.86
2019-05-07T03:04:16.639Z,100597.50
2019-05-07T03:06:44.337Z,100592.41
2019-05-07T03:09:14.454Z,100600.48
2019-05-07T03:11:43.236Z,100600.59
2019-05-07T03:14:09.483Z,100600.02
2019-05-07T03:16:43.768Z,100604.51
2019-05-07T03:19:05.507Z,100600.03
2019-05-07T03:21:53.982Z,100598.84
2019-05-07T03:24:35.456Z,100600.42
2019-05-07T03:27:03.401Z,100601.62
2019-05-07T03:29:33.630Z,100603.65
2019-05-07T03:32:37.959Z,100599.61
2019-05-07T03:35:17.048Z,100599.30
2019-05-07T03:37:44.680Z,100594.35
2019-05-07T03:40:14.315Z,100588.17
2019-05-07T03:42:43.963Z,100595.27
2019-05-07T03:45:27.518Z,100592.66
2019-05-07T03:48:17.256Z,100592.73
2019-05-07T03:50:44.462Z,100594.59
2019-05-07T03:53:14.162Z,100598.02
2019-05-07T03:55:44.319Z,100596.41
2019-05-07T03:58:14.232Z,100593.16
2019-05-07T04:00:43.975Z,100590.31
2019-05-07T04:03:12.702Z,100586.81
2019-05-07T04:05:43.063Z,100587.58
2019-05-07T04:08:12.855Z,100595.12
2019-05-07T04:10:38.341Z,100592.36
2019-05-07T04:13:05.457Z,100591.87
2019-05-07T04:15:33.124Z,100595.02
2019-05-07T04:18:03.600Z,100595.05
2019-05-07T04:20:33.357Z,100598.56
2019-05-07T04:22:59.937Z,100602.27
2019-05-07T04:25:58.743Z,100606.38
2019-05-07T04:28:54.138Z,100604.85
2019-05-07T04:31:23.086Z,100607.20
2019-05-07T04:33:53.173Z,100610.86
2019-05-07T04:36:23.614Z,100607.97
2019-05-07T04:38:53.260Z,100605.97
2019-05-07T04:41:19.676Z,100607.95
2019-05-07T04:43:49.305Z,100602.44
2019-05-07T04:46:16.382Z,100602.64
2019-05-07T04:48:44.792Z,100599.10
2019-05-07T04:51:17.658Z,100597.00
2019-05-07T04:53:45.725Z,100602.73
2019-05-07T04:56:14.042Z,100601.37
2019-05-07T04:58:43.310Z,100596.72
2019-05-07T05:01:13.772Z,100601.47
2019-05-07T05:03:43.699Z,100603.66
2019-05-07T05:06:10.214Z,100602.14
2019-05-07T05:08:37.234Z,100602.09
2019-05-07T05:11:04.350Z,100602.26
2019-05-07T05:13:33.149Z,100597.18
2019-05-07T05:16:12.673Z,100597.97
2019-05-07T05:18:41.923Z,100594.30
2019-05-07T05:21:22.654Z,100595.88
2019-05-07T05:24:09.073Z,100597.45
2019-05-07T05:26:36.115Z,100598.69
2019-05-07T05:29:03.385Z,100600.19
2019-05-07T05:31:33.060Z,100597.02
2019-05-07T05:34:02.187Z,100598.30
2019-05-07T05:36:39.253Z,100598.45
2019-05-07T05:39:22.558Z,100598.62
2019-05-07T05:41:56.548Z,100600.50
2019-05-07T05:44:33.178Z,100598.25
2019-05-07T05:47:02.330Z,100601.70
2019-05-07T05:49:29.190Z,100606.13
2019-05-07T05:52:15.949Z,100601.58
2019-05-07T05:55:06.414Z,100604.62
2019-05-07T06:00:22.995Z,100601.44
2019-05-07T06:03:06.294Z,100594.88
2019-05-07T06:05:44.642Z,100603.80
2019-05-07T06:08:25.264Z,100604.80
2019-05-07T06:11:11.867Z,100596.59
2019-05-07T06:13:58.603Z,100600.80
2019-05-07T06:16:29.857Z,100594.74
2019-05-07T06:19:22.803Z,100591.70
2019-05-07T06:22:18.309Z,100596.81
2019-05-07T06:24:56.423Z,100592.87
2019-05-07T06:27:23.579Z,100588.16
2019-05-07T06:29:52.396Z,100592.92
2019-05-07T06:32:22.944Z,100596.20
2019-05-07T06:34:52.462Z,100600.08
2019-05-07T06:37:22.793Z,100601.67
2019-05-07T06:40:15.453Z,100599.24
2019-05-07T06:43:03.147Z,100595.96
2019-05-07T06:45:51.933Z,100589.87
2019-05-07T06:48:34.631Z,100587.31
2019-05-07T06:50:57.880Z,100600.91
2019-05-07T06:53:26.771Z,100593.81
2019-05-07T06:56:05.258Z,100595.29
2019-05-07T06:58:58.267Z,100602.92
2019-05-07T07:01:54.126Z,100604.22
2019-05-07T07:04:35.302Z,100598.77
2019-05-07T07:07:23.078Z,100598.47
2019-05-07T07:09:44.524Z,100597.53
2019-05-07T07:12:16.394Z,100595.41
2019-05-07T07:14:43.856Z,100595.30
2019-05-07T07:17:13.023Z,100595.63
2019-05-07T07:19:40.172Z,100590.41
2019-05-07T07:22:13.116Z,100593.41
2019-05-07T07:24:42.860Z,100582.76
2019-05-07T07:27:10.051Z,100580.67
2019-05-07T07:29:39.248Z,100583.73
2019-05-07T07:32:06.781Z,100588.83
2019-05-07T07:34:38.662Z,100586.01
2019-05-07T07:37:16.710Z,100585.31
2019-05-07T07:39:43.901Z,100580.80
2019-05-07T07:42:12.362Z,100590.48
2019-05-07T07:44:39.483Z,100585.73
2019-05-07T07:47:06.833Z,100586.73
2019-05-07T07:49:33.874Z,100581.95
2019-05-07T07:52:03.092Z,100585.52
2019-05-07T07:54:32.100Z,100582.85
2019-05-07T07:57:08.156Z,100583.56
2019-05-07T07:59:52.861Z,100573.03
2019-05-07T08:02:47.464Z,100581.22
2019-05-07T08:05:21.896Z,100571.38
2019-05-07T08:07:49.128Z,100568.56
2019-05-07T08:10:16.452Z,100567.86
2019-05-07T08:12:43.473Z,100568.03
2019-05-07T08:15:18.044Z,100563.54
2019-05-07T08:17:41.971Z,100557.45
2019-05-07T08:20:12.783Z,100561.11
2019-05-07T08:22:42.283Z,100561.03
2019-05-07T08:25:12.378Z,100556.00
2019-05-07T08:27:39.301Z,100546.55
2019-05-07T08:30:08.479Z,100544.58
2019-05-07T08:32:58.207Z,100542.70
2019-05-07T08:35:32.733Z,100541.20
2019-05-07T08:37:59.763Z,100546.67
2019-05-07T08:40:27.040Z,100539.91
2019-05-07T08:42:57.144Z,100538.03
2019-05-07T08:45:43.218Z,100537.52
2019-05-07T08:48:15.497Z,100536.28
2019-05-07T08:50:44.245Z,100533.55
2019-05-07T08:53:13.180Z,100535.29
2019-05-07T08:55:42.379Z,100539.77
2019-05-07T08:58:09.343Z,100530.34
2019-05-07T09:00:36.433Z,100530.34
2019-05-07T09:03:04.087Z,100532.63
2019-05-07T09:05:32.395Z,100532.77
2019-05-07T09:07:59.706Z,100522.16
2019-05-07T09:10:26.797Z,100525.25
2019-05-07T09:12:53.950Z,100522.61
2019-05-07T09:15:22.686Z,100520.66
2019-05-07T09:17:50.036Z,100520.84
2019-05-07T09:20:17.306Z,100508.26
2019-05-07T09:22:44.406Z,100512.05
2019-05-07T09:25:13.036Z,100515.59
2019-05-07T09:27:42.863Z,100515.30
2019-05-07T09:30:38.978Z,100516.06
2019-05-07T09:33:25.657Z,100516.72
2019-05-07T09:35:54.085Z,100509.62
2019-05-07T09:38:22.337Z,100510.33
2019-05-07T09:40:49.682Z,100503.05
2019-05-07T09:43:16.721Z,100503.22
2019-05-07T09:45:43.761Z,100500.92
2019-05-07T09:48:11.950Z,100497.62
2019-05-07T09:50:40.343Z,100494.00
2019-05-07T09:53:07.392Z,100490.45
2019-05-07T09:55:34.724Z,100487.30
2019-05-07T09:58:03.951Z,100483.85
2019-05-07T10:00:32.506Z,100482.13
2019-05-07T10:02:59.859Z,100483.68
2019-05-07T10:05:31.972Z,100481.03
2019-05-07T10:07:59.066Z,100479.69
2019-05-07T10:10:26.133Z,100478.95
2019-05-07T10:13:08.776Z,100474.13
2019-05-07T10:15:36.145Z,100474.22
2019-05-07T10:18:09.379Z,100470.75
2019-05-07T10:20:36.435Z,100463.95
2019-05-07T10:23:03.515Z,100463.59
2019-05-07T10:25:39.701Z,100462.66
2019-05-07T10:28:07.253Z,100464.08
2019-05-07T10:30:34.935Z,100462.55
2019-05-07T10:33:01.995Z,100453.70
2019-05-07T10:35:31.073Z,100457.81
2019-05-07T10:37:58.241Z,100456.42
2019-05-07T10:40:25.970Z,100453.61
2019-05-07T10:42:53.342Z,100444.73
2019-05-07T10:45:42.147Z,100444.95
2019-05-07T10:48:24.567Z,100445.28
2019-05-07T10:50:53.146Z,100438.70
2019-05-07T10:53:20.275Z,100442.82
2019-05-07T10:55:47.435Z,100445.55
2019-05-07T10:58:14.545Z,100444.44
2019-05-07T11:00:42.103Z,100442.77
2019-05-07T11:03:12.645Z,100435.56
2019-05-07T11:05:42.013Z,100438.50
2019-05-07T11:08:09.649Z,100438.79
2019-05-07T11:10:37.784Z,100427.65
2019-05-07T11:13:04.888Z,100429.02
2019-05-07T11:15:32.836Z,100420.67
2019-05-07T11:18:21.730Z,100421.59
2019-05-07T11:20:53.336Z,100423.13
2019-05-07T11:23:19.468Z,100407.38
2019-05-07T11:25:46.554Z,100406.84
2019-05-07T11:28:13.597Z,100400.80
2019-05-07T11:30:42.493Z,100401.69
2019-05-07T11:33:09.858Z,100396.14
2019-05-07T11:35:36.913Z,100399.73
2019-05-07T11:38:17.766Z,100392.77
2019-05-07T11:40:34.906Z,100390.09
2019-05-07T11:43:14.129Z,100392.77
2019-05-07T11:45:46.853Z,100382.61
2019-05-07T11:48:14.863Z,100384.42
2019-05-07T11:51:00.448Z,100380.52
2019-05-07T11:53:18.501Z,100373.94
2019-05-07T11:55:45.646Z,100378.73
2019-05-07T11:58:12.969Z,100375.69
2019-05-07T12:00:46.339Z,100369.98
2019-05-07T12:03:13.424Z,100367.30
2019-05-07T12:05:43.423Z,100363.20
2019-05-07T12:08:13.064Z,100367.30
2019-05-07T12:10:41.259Z,100361.80
2019-05-07T12:13:32.333Z,100365.09
2019-05-07T12:16:00.081Z,100361.27
2019-05-07T12:18:36.837Z,100357.79
2019-05-07T12:21:18.345Z,100353.77
2019-05-07T12:23:42.222Z,100341.20
2019-05-07T12:26:12.610Z,100343.83
2019-05-07T12:28:41.878Z,100337.20
2019-05-07T12:31:19.990Z,100340.22
2019-05-07T12:33:58.673Z,100330.61
2019-05-07T12:36:26.070Z,100328.87
2019-05-07T12:38:53.426Z,100331.46
2019-05-07T12:41:33.897Z,100324.98
2019-05-07T12:44:02.758Z,100326.95
2019-05-07T12:46:30.322Z,100327.34
2019-05-07T12:48:57.403Z,100323.62
2019-05-07T12:51:33.939Z,100321.38
2019-05-07T12:54:13.221Z,100321.61
2019-05-07T12:56:42.510Z,100315.86
2019-05-07T12:59:09.300Z,100311.02
2019-05-07T13:01:52.098Z,100314.23
2019-05-07T13:04:22.122Z,100315.27
2019-05-07T13:07:26.974Z,100306.13
2019-05-07T13:09:54.215Z,100305.95
2019-05-07T13:12:21.733Z,100296.66
2019-05-07T13:14:48.955Z,100292.91
2019-05-07T13:17:16.017Z,100293.16
2019-05-07T13:19:43.205Z,100290.91
2019-05-07T13:22:17.124Z,100295.26
2019-05-07T13:24:45.920Z,100281.46
2019-05-07T13:27:12.979Z,100285.48
2019-05-07T13:29:42.458Z,100282.13
2019-05-07T13:32:12.262Z,100287.09
2019-05-07T13:34:42.592Z,100281.44
2019-05-07T13:37:15.343Z,100282.61
2019-05-07T13:39:48.925Z,100274.55
2019-05-07T13:42:41.939Z,100267.96
2019-05-07T13:45:38.559Z,100267.43
2019-05-07T13:48:22.590Z,100266.31
2019-05-07T13:50:59.380Z,100265.02
2019-05-07T13:53:29.483Z,100257.95
2019-05-07T13:55:56.570Z,100255.05
2019-05-07T13:58:23.644Z,100257.16
2019-05-07T14:01:04.919Z,100252.87
2019-05-07T14:03:33.377Z,100254.49
2019-05-07T14:06:02.101Z,100249.62
2019-05-07T14:08:32.107Z,100252.77
2019-05-07T14:10:59.329Z,100247.38
2019-05-07T14:13:26.765Z,100248.45
2019-05-07T14:16:07.521Z,100237.63
2019-05-07T14:18:36.286Z,100237.75
2019-05-07T14:21:04.478Z,100228.28
2019-05-07T14:23:32.521Z,100222.34
2019-05-07T14:26:01.838Z,100226.10
2019-05-07T14:28:28.827Z,100218.56
2019-05-07T14:30:55.907Z,100216.97
2019-05-07T14:33:41.447Z,100221.12
2019-05-07T14:36:12.888Z,100218.70
2019-05-07T14:38:43.089Z,100209.92
2019-05-07T14:41:10.387Z,100213.52
2019-05-07T14:43:43.136Z,100216.92
2019-05-07T14:46:11.981Z,100211.70
2019-05-07T14:48:41.920Z,100213.21
2019-05-07T14:51:09.814Z,100209.48
2019-05-07T14:53:37.015Z,100209.09
2019-05-07T14:56:06.289Z,100200.89
2019-05-07T14:58:33.399Z,100196.37
2019-05-07T15:01:02.600Z,100197.76
2019-05-07T15:03:31.794Z,100199.25
2019-05-07T15:05:59.054Z,100195.75
2019-05-07T15:08:27.368Z,100199.23
2019-05-07T15:10:54.571Z,100192.09
2019-05-07T15:13:27.241Z,100196.64
2019-05-07T15:16:05.424Z,100192.20
2019-05-07T15:19:03.017Z,100186.30
2019-05-07T15:21:32.384Z,100180.58
2019-05-07T15:23:59.395Z,100179.07
2019-05-07T15:26:32.467Z,100182.17
2019-05-07T15:29:07.135Z,100178.48
2019-05-07T15:32:07.637Z,100174.50
2019-05-07T15:34:34.826Z,100170.95
2019-05-07T15:37:01.905Z,100172.89
2019-05-07T15:39:29.022Z,100165.48
2019-05-07T15:41:56.119Z,100163.73
2019-05-07T15:44:23.197Z,100161.64
2019-05-07T15:46:56.709Z,100164.33
2019-05-07T15:49:23.801Z,100160.89
2019-05-07T15:51:57.652Z,100153.78
2019-05-07T15:54:48.065Z,100152.71
2019-05-07T15:57:22.893Z,100146.47
2019-05-07T15:59:52.492Z,100146.73
2019-05-07T16:02:34.220Z,100148.39
2019-05-07T16:05:02.239Z,100143.31
2019-05-07T16:07:32.763Z,100139.67
2019-05-07T16:10:01.085Z,100142.83
2019-05-07T16:12:28.199Z,100126.83
2019-05-07T16:15:03.159Z,100130.95
2019-05-07T16:17:34.922Z,100129.19
2019-05-07T16:20:03.203Z,100124.11
2019-05-07T16:22:35.351Z,100125.72
2019-05-07T16:25:06.846Z,100124.20
2019-05-07T16:27:33.750Z,100109.03
2019-05-07T16:30:00.858Z,100113.84
2019-05-07T16:32:27.903Z,100111.69
2019-05-07T16:34:54.989Z,100110.61
2019-05-07T16:37:22.106Z,100104.82
2019-05-07T16:39:49.314Z,100096.91
2019-05-07T16:42:16.421Z,100095.82
2019-05-07T16:44:45.245Z,100110.39
2019-05-07T16:47:12.362Z,100101.17
2019-05-07T16:49:39.502Z,100094.61
2019-05-07T16:52:06.661Z,100088.89
2019-05-07T16:54:34.105Z,100085.90
2019-05-07T16:57:28.941Z,100082.61
2019-05-07T16:59:56.265Z,100088.24
2019-05-07T17:02:26.967Z,100082.03
2019-05-07T17:05:25.747Z,100091.11
2019-05-07T17:08:12.453Z,100080.03
2019-05-07T17:10:39.666Z,100073.69
2019-05-07T17:13:09.787Z,100085.75
2019-05-07T17:15:55.742Z,100080.79
2019-05-07T17:18:26.037Z,100076.58
2019-05-07T17:20:54.362Z,100077.91
2019-05-07T17:23:22.554Z,100073.09
2019-05-07T17:25:52.571Z,100067.25
2019-05-07T17:28:22.707Z,100077.33
2019-05-07T17:30:52.304Z,100078.73
2019-05-07T17:33:24.110Z,100076.42
2019-05-07T17:35:51.851Z,100071.37
2019-05-07T17:38:22.831Z,100066.61
2019-05-07T17:40:52.448Z,100066.26
2019-05-07T17:43:22.080Z,100070.50
2019-05-07T17:45:49.589Z,100066.20
2019-05-07T17:48:16.842Z,100067.02
2019-05-07T17:51:06.568Z,100070.95
2019-05-07T17:53:33.963Z,100069.73
2019-05-07T17:56:02.103Z,100070.43
2019-05-07T17:58:29.603Z,100058.83
2019-05-07T18:00:58.246Z,100059.10
2019-05-07T18:03:32.328Z,100060.25
2019-05-07T18:06:02.246Z,100057.90
2019-05-07T18:08:32.503Z,100061.34
2019-05-07T18:11:02.514Z,100054.67
2019-05-07T18:13:32.276Z,100056.17
2019-05-07T18:16:22.318Z,100055.23
2019-05-07T18:18:51.907Z,100050.27
2019-05-07T18:21:18.828Z,100048.75
2019-05-07T18:23:46.134Z,100047.98
2019-05-07T18:26:26.938Z,100043.25
2019-05-07T18:28:42.251Z,100048.20
2019-05-07T18:31:12.159Z,100050.05
2019-05-07T18:33:52.353Z,100051.96
2019-05-07T18:36:23.863Z,100051.67
2019-05-07T18:38:52.827Z,100061.91
2019-05-07T18:41:22.335Z,100051.78
2019-05-07T18:44:08.230Z,100052.34
2019-05-07T18:46:39.925Z,100056.70
2019-05-07T18:49:14.868Z,100053.76
2019-05-07T18:51:53.492Z,100052.56
2019-05-07T18:54:31.725Z,100058.65
2019-05-07T18:57:02.402Z,100057.72
2019-05-07T18:59:32.597Z,100058.81
2019-05-07T19:02:13.401Z,100058.45
2019-05-07T19:04:48.351Z,100058.89
2019-05-07T19:07:26.927Z,100052.97
2019-05-07T19:10:17.806Z,100060.05
2019-05-07T19:12:49.826Z,100060.98
2019-05-07T19:15:24.653Z,100063.69
2019-05-07T19:18:05.482Z,100055.62
2019-05-07T19:20:32.869Z,100052.70
2019-05-07T19:23:02.514Z,100055.00
2019-05-07T19:25:29.448Z,100062.55
2019-05-07T19:27:58.723Z,100059.34
2019-05-07T19:30:25.990Z,100057.22
2019-05-07T19:32:53.124Z,100059.82
2019-05-07T19:35:24.877Z,100060.87
2019-05-07T19:37:54.970Z,100060.01
2019-05-07T19:40:26.619Z,100063.20
2019-05-07T19:42:53.970Z,100062.83
2019-05-07T19:45:24.219Z,100062.98
2019-05-07T19:47:52.435Z,100053.59
2019-05-07T19:50:23.297Z,100050.82
2019-05-07T19:52:52.166Z,100048.06
2019-05-07T19:55:23.737Z,100050.27
2019-05-07T19:58:12.853Z,100048.98
2019-05-07T20:00:45.291Z,100050.25
2019-05-07T20:03:13.122Z,100041.24
2019-05-07T20:05:45.670Z,100040.16
2019-05-07T20:08:24.976Z,100039.66
2019-05-07T20:10:58.139Z,100034.27
2019-05-07T20:13:28.491Z,100034.22
2019-05-07T20:16:08.003Z,100040.59
2019-05-07T20:18:37.135Z,100039.67
2019-05-07T20:21:12.559Z,100035.95
2019-05-07T20:23:47.403Z,100035.40
2019-05-07T20:26:19.416Z,100036.78
2019-05-07T20:28:49.457Z,100032.88
2019-05-07T20:31:16.796Z,100029.38
2019-05-07T20:33:47.502Z,100021.44
2019-05-07T20:36:23.320Z,100018.11
2019-05-07T20:38:52.278Z,100017.90
2019-05-07T20:41:23.288Z,100016.80
2019-05-07T20:43:52.352Z,100012.02
2019-05-07T20:46:21.640Z,100009.97
2019-05-07T20:48:49.042Z,100006.66
2019-05-07T20:51:22.955Z,100007.23
2019-05-07T20:54:09.479Z,100009.45
2019-05-07T20:56:39.441Z,100001.65
2019-05-07T20:59:07.002Z,99999.94
2019-05-07T21:01:34.252Z,99999.98
2019-05-07T21:04:02.896Z,99999.95
2019-05-07T21:06:32.186Z,99994.99
2019-05-07T21:08:59.402Z,99992.68
2019-05-07T21:11:26.603Z,99988.97
2019-05-07T21:13:53.720Z,99991.78
2019-05-07T21:16:22.082Z,99987.34
2019-05-07T21:18:49.843Z,99985.03
2019-05-07T21:21:17.996Z,99979.59
2019-05-07T21:23:45.377Z,99975.91
2019-05-07T21:26:13.211Z,99972.22
2019-05-07T21:28:45.049Z,99961.41
2019-05-07T21:31:15.737Z,99966.58
2019-05-07T21:33:44.881Z,99958.53
2019-05-07T21:36:12.284Z,99963.09
2019-05-07T21:38:42.560Z,99961.22
2019-05-07T21:41:12.839Z,99960.48
2019-05-07T21:43:43.059Z,99959.97
2019-05-07T21:46:09.325Z,99958.86
2019-05-07T21:48:39.142Z,99952.43
2019-05-07T21:51:07.421Z,99959.49
2019-05-07T21:54:03.689Z,99960.38
2019-05-07T21:57:01.938Z,99961.42
2019-05-07T21:59:32.686Z,99958.55
2019-05-07T22:02:02.248Z,99952.77
2019-05-07T22:04:29.762Z,99955.84
2019-05-07T22:06:56.883Z,99952.66
2019-05-07T22:09:23.932Z,99942.89
2019-05-07T22:11:53.526Z,99941.04
2019-05-07T22:14:22.247Z,99941.70
2019-05-07T22:16:49.553Z,99936.85
2019-05-07T22:19:16.647Z,99941.58
2019-05-07T22:21:43.700Z,99934.58
2019-05-07T22:24:13.049Z,99925.70
2019-05-07T22:26:41.962Z,99927.05
2019-05-07T22:29:08.892Z,99925.05
2019-05-07T22:31:46.258Z,99926.14
2019-05-07T22:34:27.844Z,99922.19
2019-05-07T22:36:56.236Z,99925.05
2019-05-07T22:39:29.413Z,99920.11
2019-05-07T22:41:58.361Z,99909.90
2019-05-07T22:44:26.585Z,99906.11
2019-05-07T22:46:54.556Z,99895.37
2019-05-07T22:49:22.933Z,99895.56
2019-05-07T22:51:52.599Z,99886.23
2019-05-07T22:54:19.372Z,99882.81
2019-05-07T22:57:00.052Z,99879.20
2019-05-07T22:59:28.896Z,99875.17
2019-05-07T23:01:57.238Z,99873.24
2019-05-07T23:04:25.536Z,99869.29
2019-05-07T23:06:52.992Z,99861.70
2019-05-07T23:09:22.341Z,99858.41
2019-05-07T23:11:49.206Z,99853.69
2019-05-07T23:14:17.088Z,99852.20
2019-05-07T23:16:44.142Z,99839.98
2019-05-07T23:19:13.915Z,99838.28
2019-05-07T23:21:42.485Z,99835.80
2019-05-07T23:24:09.118Z,99832.25
2019-05-07T23:26:47.401Z,99823.74
2019-05-07T23:29:05.364Z,99828.97
2019-05-07T23:31:32.425Z,99820.56
2019-05-07T23:34:01.448Z,99815.88
2019-05-07T23:36:28.436Z,99812.50
2019-05-07T23:38:55.495Z,99818.15
2019-05-07T23:41:29.280Z,99809.16
2019-05-07T23:44:14.516Z,99808.23
2019-05-07T23:46:44.361Z,99812.31
2019-05-07T23:49:12.441Z,99808.67
2019-05-07T23:51:39.467Z,99805.64
2019-05-07T23:54:06.741Z,99803.31
2019-05-07T23:56:33.779Z,99805.02
2019-05-07T23:59:00.874Z,99803.66
